KBWG

Bowling Green-Warren County Regional Airport

Bowling Green, Kentucky, USA
METAR KBWG 191453Z AUTO 17005KT 10SM CLR 27/23 A2997 RMK AO2 SLP143 T02670228 51007
Observed Flight Rules
Aug-19 @ 14:53 UTC (45 minutes ago) Visual Flight Rules
Wind Visibility Clouds
170° at 5 knots 10 miles
  • Clear skies
Temperatures Readings
Current 27°C / 81°F
Dewpoint 23°C / 73°F
Humidity 79%
Altimeter 29.97" Hg
Pressure 1014.3 hPa
Elevation 168
METAR KBWG 191453Z AUTO 17005KT 10SM CLR 27/23 A2997 RMK AO2 SLP143 T02670228 51007
Observed Flight Rules
Aug-19 @ 14:53 UTC
(45 minutes ago)
VFR
Wind Visibility
170° at 5 knots 10 miles
Clouds
  • Clear skies
Temperature Dewpoint
27°C / 81°F 23°C / 73°F
Humidity Altimeter Pressure
79% 29.97" Hg 1014.3 hPa